createdAt,value
2022-11-27T00:00:07.261Z,99585.59
2022-11-27T00:02:40.959Z,99593.94
2022-11-27T00:05:08.793Z,99583.56
2022-11-27T00:07:36.209Z,99580.84
2022-11-27T00:10:03.711Z,99578.91
2022-11-27T00:12:31.673Z,99566.91
2022-11-27T00:14:59.028Z,99574.06
2022-11-27T00:17:26.422Z,99558.84
2022-11-27T00:19:53.879Z,99558.91
2022-11-27T00:22:21.251Z,99551.97
2022-11-27T00:24:48.624Z,99555.59
2022-11-27T00:27:16.051Z,99551.38
2022-11-27T00:29:44.234Z,99563.25
2022-11-27T00:32:11.877Z,99553.06
2022-11-27T00:34:39.561Z,99549.09
2022-11-27T00:37:07.286Z,99554.66
2022-11-27T00:39:34.779Z,99555.00
2022-11-27T00:42:02.180Z,99551.34
2022-11-27T00:44:29.642Z,99545.63
2022-11-27T00:46:57.122Z,99543.22
2022-11-27T00:49:24.671Z,99540.72
2022-11-27T00:51:52.113Z,99539.75
2022-11-27T00:54:22.659Z,99542.19
2022-11-27T00:56:50.305Z,99534.22
2022-11-27T00:59:17.827Z,99523.13
2022-11-27T01:01:45.327Z,99522.81
2022-11-27T01:04:15.416Z,99514.63
2022-11-27T01:06:44.020Z,99516.22
2022-11-27T01:09:12.870Z,99510.25
2022-11-27T01:11:40.590Z,99512.13
2022-11-27T01:14:13.942Z,99514.94
2022-11-27T01:16:43.359Z,99509.59
2022-11-27T01:19:12.786Z,99498.97
2022-11-27T01:21:40.170Z,99505.28
2022-11-27T01:24:08.011Z,99496.53
2022-11-27T01:26:35.320Z,99492.31
2022-11-27T01:29:02.848Z,99482.22
2022-11-27T01:31:32.278Z,99484.56
2022-11-27T01:34:02.760Z,99492.44
2022-11-27T01:36:30.707Z,99479.53
2022-11-27T01:38:58.565Z,99488.31
2022-11-27T01:41:31.856Z,99486.78
2022-11-27T01:44:23.462Z,99479.75
2022-11-27T01:46:56.683Z,99477.25
2022-11-27T01:49:37.212Z,99473.44
2022-11-27T01:52:12.235Z,99475.97
2022-11-27T01:54:46.782Z,99462.59
2022-11-27T01:57:17.073Z,99456.06
2022-11-27T01:59:45.391Z,99452.31
2022-11-27T02:02:12.878Z,99449.66
2022-11-27T02:04:40.574Z,99450.56
2022-11-27T02:07:08.178Z,99440.97
2022-11-27T02:09:35.632Z,99442.00
2022-11-27T02:12:09.887Z,99435.31
2022-11-27T02:14:37.300Z,99435.91
2022-11-27T02:17:16.909Z,99437.75
2022-11-27T02:19:50.882Z,99431.88
2022-11-27T02:22:43.134Z,99443.44
2022-11-27T02:25:15.117Z,99432.06
2022-11-27T02:28:18.065Z,99428.38
2022-11-27T02:30:52.122Z,99430.31
2022-11-27T02:33:21.352Z,99424.41
2022-11-27T02:36:15.944Z,99426.63
2022-11-27T02:39:06.912Z,99419.38
2022-11-27T02:41:44.732Z,99444.09
2022-11-27T02:44:12.635Z,99440.63
2022-11-27T02:46:41.174Z,99432.59
2022-11-27T02:49:12.059Z,99426.25
2022-11-27T02:51:44.675Z,99441.63
2022-11-27T02:54:15.416Z,99429.09
2022-11-27T02:56:44.121Z,99428.19
2022-11-27T02:59:13.868Z,99434.75
2022-11-27T03:01:49.161Z,99435.44
2022-11-27T03:04:19.612Z,99431.31
2022-11-27T03:06:50.368Z,99431.22
2022-11-27T03:09:34.926Z,99418.47
2022-11-27T03:12:04.247Z,99413.19
2022-11-27T03:14:31.857Z,99414.63
2022-11-27T03:17:25.350Z,99417.28
2022-11-27T03:19:55.453Z,99414.19
2022-11-27T03:22:22.812Z,99412.72
2022-11-27T03:24:50.198Z,99421.28
2022-11-27T03:27:29.676Z,99425.56
2022-11-27T03:29:59.773Z,99430.84
2022-11-27T03:32:28.230Z,99430.63
2022-11-27T03:34:55.740Z,99426.25
2022-11-27T03:37:23.846Z,99420.38
2022-11-27T03:39:51.846Z,99419.81
2022-11-27T03:42:30.639Z,99418.06
2022-11-27T03:45:22.213Z,99411.22
2022-11-27T03:48:05.179Z,99411.13
2022-11-27T03:50:59.558Z,99421.66
2022-11-27T03:53:44.578Z,99413.81
2022-11-27T03:56:40.180Z,99419.94
2022-11-27T03:59:29.747Z,99428.66
2022-11-27T04:01:56.896Z,99422.34
2022-11-27T04:04:24.252Z,99418.53
2022-11-27T04:06:51.314Z,99413.34
2022-11-27T04:09:18.354Z,99407.31
2022-11-27T04:11:45.416Z,99399.47
2022-11-27T04:14:12.435Z,99389.97
2022-11-27T04:16:39.507Z,99385.47
2022-11-27T04:19:06.589Z,99385.63
2022-11-27T04:21:34.031Z,99397.31
2022-11-27T04:24:01.091Z,99404.50
2022-11-27T04:26:28.167Z,99412.22
2022-11-27T04:28:55.315Z,99409.34
2022-11-27T04:31:22.378Z,99404.25
2022-11-27T04:33:49.863Z,99410.50
2022-11-27T04:36:17.310Z,99410.63
2022-11-27T04:38:44.740Z,99400.88
2022-11-27T04:41:12.166Z,99399.09
2022-11-27T04:43:39.595Z,99399.28
2022-11-27T04:46:07.092Z,99396.78
2022-11-27T04:48:34.515Z,99395.13
2022-11-27T04:51:01.992Z,99387.88
2022-11-27T04:53:29.411Z,99380.22
2022-11-27T04:55:56.780Z,99388.38
2022-11-27T04:58:24.212Z,99381.50
2022-11-27T05:00:51.715Z,99371.78
2022-11-27T05:03:19.294Z,99370.25
2022-11-27T05:05:53.805Z,99376.28
2022-11-27T05:08:21.160Z,99377.84
2022-11-27T05:11:08.722Z,99383.22
2022-11-27T05:13:36.114Z,99377.91
2022-11-27T05:16:04.030Z,99377.16
2022-11-27T05:18:31.941Z,99373.69
2022-11-27T05:21:04.875Z,99366.78
2022-11-27T05:23:32.677Z,99363.25
2022-11-27T05:26:00.516Z,99358.97
2022-11-27T05:28:28.027Z,99358.31
2022-11-27T05:30:55.621Z,99354.63
2022-11-27T05:33:23.165Z,99354.31
2022-11-27T05:35:50.575Z,99347.81
2022-11-27T05:38:17.977Z,99343.56
2022-11-27T05:40:45.402Z,99350.66
2022-11-27T05:43:12.769Z,99346.47
2022-11-27T05:45:40.381Z,99347.38
2022-11-27T05:48:07.766Z,99336.13
2022-11-27T05:50:35.128Z,99336.88
2022-11-27T05:53:05.557Z,99337.91
2022-11-27T05:55:32.982Z,99344.81
2022-11-27T05:58:00.468Z,99345.72
2022-11-27T06:00:27.860Z,99335.72
2022-11-27T06:02:56.582Z,99347.19
2022-11-27T06:05:24.358Z,99341.28
2022-11-27T06:07:51.908Z,99346.50
2022-11-27T06:10:19.467Z,99346.38
2022-11-27T06:12:46.941Z,99351.66
2022-11-27T06:15:14.383Z,99348.94
2022-11-27T06:17:41.748Z,99349.69
2022-11-27T06:20:09.535Z,99355.00
2022-11-27T06:22:37.012Z,99353.16
2022-11-27T06:25:04.663Z,99348.59
2022-11-27T06:27:35.829Z,99349.38
2022-11-27T06:30:04.328Z,99351.25
2022-11-27T06:32:31.827Z,99344.97
2022-11-27T06:34:59.225Z,99350.38
2022-11-27T06:37:27.043Z,99350.25
2022-11-27T06:39:54.468Z,99356.63
2022-11-27T06:42:21.912Z,99359.41
2022-11-27T06:44:49.387Z,99372.44
2022-11-27T06:47:16.828Z,99373.16
2022-11-27T06:49:44.230Z,99367.06
2022-11-27T06:52:11.679Z,99368.91
2022-11-27T06:54:39.399Z,99369.72
2022-11-27T06:57:07.039Z,99349.88
2022-11-27T06:59:34.440Z,99357.63
2022-11-27T07:02:01.944Z,99355.13
2022-11-27T07:04:29.395Z,99352.50
2022-11-27T07:06:56.868Z,99344.59
2022-11-27T07:09:24.301Z,99341.84
2022-11-27T07:11:51.758Z,99345.41
2022-11-27T07:14:19.192Z,99355.72
2022-11-27T07:16:46.757Z,99351.34
2022-11-27T07:19:14.808Z,99350.38
2022-11-27T07:21:42.233Z,99343.47
2022-11-27T07:24:09.670Z,99336.56
2022-11-27T07:26:37.178Z,99342.63
2022-11-27T07:29:04.609Z,99339.16
2022-11-27T07:31:32.107Z,99336.34
2022-11-27T07:33:59.375Z,99332.75
2022-11-27T07:36:30.235Z,99329.47
2022-11-27T07:38:58.248Z,99323.25
2022-11-27T07:41:29.348Z,99319.06
2022-11-27T07:43:58.136Z,99308.66
2022-11-27T07:46:25.766Z,99291.78
2022-11-27T07:48:53.234Z,99287.31
2022-11-27T07:51:22.419Z,99291.66
2022-11-27T07:53:53.087Z,99284.63
2022-11-27T07:56:20.928Z,99276.75
2022-11-27T07:58:49.006Z,99280.25
2022-11-27T08:01:18.145Z,99274.22
2022-11-27T08:03:46.026Z,99271.56
2022-11-27T08:06:17.623Z,99264.75
2022-11-27T08:08:45.784Z,99269.97
2022-11-27T08:11:18.474Z,99266.59
2022-11-27T08:13:45.975Z,99269.22
2022-11-27T08:16:13.398Z,99257.63
2022-11-27T08:18:40.823Z,99255.28
2022-11-27T08:21:08.409Z,99249.97
2022-11-27T08:23:35.787Z,99252.00
2022-11-27T08:26:09.595Z,99248.63
2022-11-27T08:28:37.295Z,99250.19
2022-11-27T08:31:06.223Z,99248.94
2022-11-27T08:33:34.534Z,99240.56
2022-11-27T08:36:02.067Z,99227.25
2022-11-27T08:38:29.700Z,99236.63
2022-11-27T08:41:02.487Z,99238.38
2022-11-27T08:43:30.911Z,99223.03
2022-11-27T08:45:59.530Z,99223.78
2022-11-27T08:48:27.223Z,99213.06
2022-11-27T08:50:54.916Z,99207.25
2022-11-27T08:53:22.633Z,99202.19
2022-11-27T08:55:50.121Z,99202.19
2022-11-27T08:58:17.531Z,99211.13
2022-11-27T09:00:44.978Z,99208.34
2022-11-27T09:03:12.849Z,99209.56
2022-11-27T09:05:44.171Z,99207.56
2022-11-27T09:08:16.425Z,99225.28
2022-11-27T09:10:43.900Z,99224.50
2022-11-27T09:13:11.375Z,99224.81
2022-11-27T09:15:38.378Z,99221.56
2022-11-27T09:18:05.469Z,99213.47
2022-11-27T09:20:32.406Z,99214.81
2022-11-27T09:23:02.383Z,99216.63
2022-11-27T09:25:29.561Z,99226.69
2022-11-27T09:27:56.497Z,99220.72
2022-11-27T09:30:23.623Z,99235.75
2022-11-27T09:32:50.592Z,99234.34
2022-11-27T09:35:17.776Z,99224.47
2022-11-27T09:37:44.760Z,99222.03
2022-11-27T09:40:16.904Z,99227.66
2022-11-27T09:43:05.384Z,99212.75
2022-11-27T09:45:33.705Z,99206.72
2022-11-27T09:48:05.683Z,99191.06
2022-11-27T09:50:40.300Z,99185.91
2022-11-27T09:53:39.785Z,99179.03
2022-11-27T09:56:13.582Z,99180.31
2022-11-27T09:58:42.894Z,99189.59
2022-11-27T10:01:15.374Z,99188.94
2022-11-27T10:03:43.839Z,99177.25
2022-11-27T10:06:24.211Z,99153.50
2022-11-27T10:09:02.298Z,99143.78
2022-11-27T10:11:47.881Z,99159.63
2022-11-27T10:15:03.674Z,99174.78
2022-11-27T10:17:41.539Z,99153.66
2022-11-27T10:20:37.736Z,99148.75
2022-11-27T10:23:09.924Z,99150.50
2022-11-27T10:25:52.862Z,99142.81
2022-11-27T10:28:29.370Z,99131.97
2022-11-27T10:31:03.494Z,99138.16
2022-11-27T10:33:43.807Z,99133.28
2022-11-27T10:36:34.372Z,99135.56
2022-11-27T10:39:02.386Z,99131.84
2022-11-27T10:41:53.164Z,99126.63
2022-11-27T10:44:26.971Z,99121.94
2022-11-27T10:47:03.902Z,99123.28
2022-11-27T10:49:31.834Z,99116.41
2022-11-27T10:52:00.077Z,99120.25
2022-11-27T10:54:32.357Z,99113.91
2022-11-27T10:57:18.753Z,99115.16
2022-11-27T11:00:02.091Z,99108.28
2022-11-27T11:02:34.633Z,99101.38
2022-11-27T11:05:37.754Z,99099.09
2022-11-27T11:08:19.415Z,99094.53
2022-11-27T11:10:58.301Z,99091.13
2022-11-27T11:13:48.297Z,99089.94
2022-11-27T11:16:24.907Z,99083.03
2022-11-27T11:18:54.627Z,99080.16
2022-11-27T11:21:34.555Z,99074.50
2022-11-27T11:24:24.440Z,99071.50
2022-11-27T11:26:59.097Z,99066.16
2022-11-27T11:29:52.696Z,99045.84
2022-11-27T11:32:35.443Z,99044.16
2022-11-27T11:35:11.223Z,99037.78
2022-11-27T11:37:46.333Z,99027.63
2022-11-27T11:40:16.054Z,99016.44
2022-11-27T11:42:58.994Z,99012.81
2022-11-27T11:45:32.313Z,99014.84
2022-11-27T11:48:22.792Z,99011.53
2022-11-27T11:51:01.970Z,99009.78
2022-11-27T11:53:40.100Z,99010.56
2022-11-27T11:56:34.032Z,99000.88
2022-11-27T11:59:04.298Z,98998.81
2022-11-27T12:02:18.321Z,98991.78
2022-11-27T12:05:11.694Z,98985.22
2022-11-27T12:08:07.191Z,98970.94
2022-11-27T12:11:11.757Z,98980.00
2022-11-27T12:13:59.876Z,98968.72
2022-11-27T12:16:39.685Z,98968.13
2022-11-27T12:19:09.775Z,98962.28
2022-11-27T12:21:45.804Z,98961.31
2022-11-27T12:24:27.448Z,98957.97
2022-11-27T12:27:06.261Z,98962.53
2022-11-27T12:30:11.444Z,98951.47
2022-11-27T12:32:58.828Z,98952.69
2022-11-27T12:35:44.992Z,98948.31
2022-11-27T12:38:43.065Z,98940.75
2022-11-27T12:41:31.937Z,98941.09
2022-11-27T12:44:02.001Z,98942.63
2022-11-27T12:46:37.523Z,98940.31
2022-11-27T12:49:19.940Z,98930.56
2022-11-27T12:52:09.815Z,98915.31
2022-11-27T12:54:55.308Z,98924.56
2022-11-27T12:58:03.420Z,98906.00
2022-11-27T13:00:32.319Z,98909.66
2022-11-27T13:03:25.802Z,98901.34
2022-11-27T13:06:00.281Z,98893.00
2022-11-27T13:08:53.709Z,98898.50
2022-11-27T13:11:28.380Z,98899.69
2022-11-27T13:14:10.110Z,98895.66
2022-11-27T13:16:45.190Z,98900.38
2022-11-27T13:19:51.115Z,98885.63
2022-11-27T13:22:34.644Z,98889.19
2022-11-27T13:25:03.459Z,98884.22
2022-11-27T13:27:34.408Z,98879.28
2022-11-27T13:30:06.533Z,98881.28
2022-11-27T13:32:57.146Z,98874.47
2022-11-27T13:35:41.949Z,98865.22
2022-11-27T13:38:08.892Z,98864.13
2022-11-27T13:40:49.173Z,98860.97
2022-11-27T13:43:28.798Z,98866.41
2022-11-27T13:46:31.473Z,98860.09
2022-11-27T13:49:05.637Z,98860.53
2022-11-27T13:51:38.890Z,98863.50
2022-11-27T13:54:14.377Z,98858.91
2022-11-27T13:56:41.836Z,98857.53
2022-11-27T13:59:17.068Z,98858.47
2022-11-27T14:02:03.304Z,98848.34
2022-11-27T14:04:32.337Z,98844.34
2022-11-27T14:07:13.699Z,98844.22
2022-11-27T14:10:23.779Z,98834.72
2022-11-27T14:13:07.810Z,98832.03
2022-11-27T14:15:37.575Z,98829.69
2022-11-27T14:18:18.648Z,98833.81
2022-11-27T14:21:01.441Z,98832.22
2022-11-27T14:23:49.692Z,98847.81
2022-11-27T14:26:16.509Z,98838.50
2022-11-27T14:28:48.762Z,98835.28
2022-11-27T14:31:35.839Z,98834.66
2022-11-27T14:34:20.841Z,98834.72
2022-11-27T14:36:52.922Z,98834.50
2022-11-27T14:39:30.503Z,98818.81
2022-11-27T14:42:17.454Z,98830.03
2022-11-27T14:44:44.359Z,98820.81
2022-11-27T14:47:20.080Z,98820.19
2022-11-27T14:49:47.058Z,98810.59
2022-11-27T14:52:17.689Z,98806.84
2022-11-27T14:54:45.066Z,98797.81
2022-11-27T14:57:23.439Z,98797.28
2022-11-27T15:00:10.704Z,98794.72
2022-11-27T15:02:37.778Z,98784.31
2022-11-27T15:05:06.416Z,98775.00
2022-11-27T15:07:45.252Z,98761.19
2022-11-27T15:10:37.544Z,98757.16
2022-11-27T15:13:07.956Z,98744.34
2022-11-27T15:15:44.583Z,98741.94
2022-11-27T15:18:24.768Z,98735.56
2022-11-27T15:20:52.749Z,98733.56
2022-11-27T15:23:32.126Z,98727.38
2022-11-27T15:26:02.364Z,98732.94
2022-11-27T15:28:52.915Z,98728.13
2022-11-27T15:31:35.180Z,98727.66
2022-11-27T15:34:22.197Z,98722.03
2022-11-27T15:36:58.424Z,98712.53
2022-11-27T15:39:51.851Z,98716.78
2022-11-27T15:42:19.945Z,98709.34
2022-11-27T15:44:49.062Z,98706.72
2022-11-27T15:47:33.892Z,98709.50
2022-11-27T15:50:01.322Z,98701.75
2022-11-27T15:52:28.820Z,98701.19
2022-11-27T15:54:56.561Z,98697.31
2022-11-27T15:57:24.359Z,98703.03
2022-11-27T15:59:51.303Z,98700.69
2022-11-27T16:02:18.653Z,98695.97
2022-11-27T16:04:45.647Z,98697.28
2022-11-27T16:07:12.771Z,98700.56
2022-11-27T16:09:40.065Z,98699.59
2022-11-27T16:12:07.236Z,98697.56
2022-11-27T16:14:34.279Z,98695.03
2022-11-27T16:17:01.388Z,98702.47
2022-11-27T16:19:29.980Z,98706.19
2022-11-27T16:21:56.962Z,98705.06
2022-11-27T16:24:23.957Z,98707.22
2022-11-27T16:26:50.939Z,98717.16
2022-11-27T16:29:18.296Z,98718.66
2022-11-27T16:31:45.405Z,98718.53
2022-11-27T16:34:15.511Z,98724.16
2022-11-27T16:36:45.676Z,98723.66
2022-11-27T16:39:17.405Z,98723.59
2022-11-27T16:41:44.635Z,98724.44
2022-11-27T16:44:14.530Z,98731.41
2022-11-27T16:46:44.558Z,98740.41
2022-11-27T16:49:12.344Z,98737.38
2022-11-27T16:51:41.270Z,98735.19
2022-11-27T16:54:13.306Z,98728.47
2022-11-27T16:56:42.523Z,98721.69
2022-11-27T16:59:12.369Z,98716.53
2022-11-27T17:01:41.586Z,98708.97
2022-11-27T17:04:15.356Z,98707.72
2022-11-27T17:06:42.265Z,98709.84
2022-11-27T17:09:09.350Z,98696.97
2022-11-27T17:11:39.522Z,98698.34
2022-11-27T17:14:08.131Z,98687.16
2022-11-27T17:16:36.904Z,98691.16
2022-11-27T17:19:04.486Z,98679.88
2022-11-27T17:21:34.961Z,98672.19
2022-11-27T17:24:11.552Z,98667.84
2022-11-27T17:26:44.243Z,98659.16
2022-11-27T17:29:14.018Z,98666.19
2022-11-27T17:31:41.446Z,98664.22
2022-11-27T17:34:11.090Z,98669.72
2022-11-27T17:36:38.903Z,98672.44
2022-11-27T17:39:06.930Z,98665.72
2022-11-27T17:41:34.726Z,98653.22
2022-11-27T17:44:05.382Z,98644.94
2022-11-27T17:46:34.326Z,98634.00
2022-11-27T17:49:04.948Z,98621.66
2022-11-27T17:51:34.586Z,98613.88
2022-11-27T17:54:03.140Z,98606.59
2022-11-27T17:56:32.816Z,98597.22
2022-11-27T17:58:59.953Z,98600.19
2022-11-27T18:01:29.574Z,98608.88
2022-11-27T18:04:03.575Z,98601.03
2022-11-27T18:06:32.340Z,98604.41
2022-11-27T18:09:00.034Z,98593.16
2022-11-27T18:11:31.429Z,98589.50
2022-11-27T18:14:00.233Z,98589.44
2022-11-27T18:16:35.693Z,98589.75
2022-11-27T18:19:06.448Z,98593.91
2022-11-27T18:21:33.941Z,98597.28
2022-11-27T18:29:39.326Z,98582.91
2022-11-27T18:32:07.132Z,98582.25
2022-11-27T18:34:34.539Z,98574.81
2022-11-27T18:37:01.737Z,98575.72
2022-11-27T18:39:28.823Z,98570.50
2022-11-27T18:41:55.748Z,98563.72
2022-11-27T18:44:22.981Z,98545.78
2022-11-27T18:46:50.613Z,98544.44
2022-11-27T18:49:18.257Z,98546.91
2022-11-27T18:51:46.735Z,98540.78
2022-11-27T18:54:13.708Z,98550.88
2022-11-27T18:56:40.643Z,98537.44
2022-11-27T18:59:09.162Z,98534.56
2022-11-27T19:01:42.237Z,98538.97
2022-11-27T19:04:11.148Z,98546.81
2022-11-27T19:06:39.797Z,98541.56
2022-11-27T19:09:07.253Z,98548.34
2022-11-27T19:11:35.304Z,98537.34
2022-11-27T19:14:04.042Z,98522.72
2022-11-27T19:16:43.907Z,98537.59
2022-11-27T19:19:52.174Z,98527.34
2022-11-27T19:22:01.678Z,98530.06
2022-11-27T19:24:28.801Z,98545.69
2022-11-27T19:26:57.720Z,98535.13
2022-11-27T19:29:24.757Z,98536.22
2022-11-27T19:31:52.192Z,98520.09
2022-11-27T19:34:20.712Z,98520.84
2022-11-27T19:36:47.812Z,98523.06
2022-11-27T19:39:15.911Z,98509.53
2022-11-27T19:41:43.930Z,98507.09
2022-11-27T19:44:12.863Z,98507.91
2022-11-27T19:46:41.012Z,98511.72
2022-11-27T19:49:13.657Z,98500.00
2022-11-27T19:51:41.277Z,98484.69
2022-11-27T19:54:12.560Z,98485.19
2022-11-27T19:56:42.182Z,98490.16
2022-11-27T19:59:12.315Z,98476.97
2022-11-27T20:01:41.828Z,98479.50
2022-11-27T20:04:11.780Z,98476.81
2022-11-27T20:06:39.742Z,98473.75
2022-11-27T20:09:08.630Z,98464.75
2022-11-27T20:11:36.523Z,98464.06
2022-11-27T20:14:06.352Z,98464.66
2022-11-27T20:16:35.702Z,98458.16
2022-11-27T20:19:05.754Z,98455.09
2022-11-27T20:21:36.533Z,98453.41
2022-11-27T20:24:04.060Z,98457.22
2022-11-27T20:26:31.524Z,98450.03
2022-11-27T20:28:59.863Z,98443.72
2022-11-27T20:31:31.784Z,98454.63
2022-11-27T20:34:02.448Z,98446.41
2022-11-27T20:36:34.331Z,98445.09
2022-11-27T20:39:02.072Z,98447.41
2022-11-27T20:41:30.049Z,98448.56
2022-11-27T20:44:01.087Z,98433.91
2022-11-27T20:46:29.490Z,98434.94
2022-11-27T20:48:57.259Z,98431.28
2022-11-27T20:51:28.501Z,98433.41
2022-11-27T20:53:58.604Z,98430.50
2022-11-27T20:56:26.268Z,98439.97
2022-11-27T20:58:53.366Z,98430.69
2022-11-27T21:01:29.834Z,98426.19
2022-11-27T21:04:00.166Z,98419.53
2022-11-27T21:06:31.599Z,98422.75
2022-11-27T21:09:04.402Z,98425.84
2022-11-27T21:11:32.950Z,98420.69
2022-11-27T21:14:06.260Z,98415.75
2022-11-27T21:16:38.294Z,98415.06
2022-11-27T21:19:14.968Z,98408.50
2022-11-27T21:21:42.088Z,98407.44
2022-11-27T21:24:09.832Z,98398.91
2022-11-27T21:26:36.898Z,98395.44
2022-11-27T21:29:04.466Z,98382.00
2022-11-27T21:31:37.329Z,98385.81
2022-11-27T21:34:07.499Z,98390.13
2022-11-27T21:36:37.235Z,98385.06
2022-11-27T21:39:08.244Z,98378.91
2022-11-27T21:41:35.950Z,98364.03
2022-11-27T21:44:05.752Z,98373.41
2022-11-27T21:46:33.625Z,98386.94
2022-11-27T21:49:04.037Z,98390.97
2022-11-27T21:51:31.138Z,98369.09
2022-11-27T21:53:59.275Z,98362.66
2022-11-27T21:56:29.016Z,98378.13
2022-11-27T21:58:56.554Z,98386.66
2022-11-27T22:01:25.710Z,98380.63
2022-11-27T22:03:56.625Z,98377.94
2022-11-27T22:06:27.569Z,98378.25
2022-11-27T22:08:58.045Z,98383.16
2022-11-27T22:11:28.742Z,98375.16
2022-11-27T22:14:05.853Z,98381.81
2022-11-27T22:16:42.793Z,98367.44
2022-11-27T22:19:11.966Z,98355.59
2022-11-27T22:21:38.942Z,98360.09
2022-11-27T22:24:06.376Z,98357.94
2022-11-27T22:26:33.831Z,98347.44
2022-11-27T22:29:00.822Z,98334.13
2022-11-27T22:31:31.247Z,98330.50
2022-11-27T22:33:59.134Z,98323.00
2022-11-27T22:36:34.873Z,98322.94
2022-11-27T22:39:06.028Z,98319.03
2022-11-27T22:41:37.047Z,98321.41
2022-11-27T22:44:09.446Z,98323.66
2022-11-27T22:46:40.125Z,98332.47
2022-11-27T22:49:09.547Z,98323.59
2022-11-27T22:51:37.282Z,98342.06
2022-11-27T22:54:06.948Z,98324.72
2022-11-27T22:56:34.014Z,98325.72
2022-11-27T22:59:30.459Z,98333.78
2022-11-27T23:01:49.584Z,98336.41
2022-11-27T23:04:17.499Z,98325.50
2022-11-27T23:06:47.908Z,98321.47
2022-11-27T23:09:17.789Z,98306.44
2022-11-27T23:11:45.341Z,98306.88
2022-11-27T23:14:12.260Z,98282.66
2022-11-27T23:16:39.507Z,98279.28
2022-11-27T23:19:06.955Z,98287.00
2022-11-27T23:21:37.472Z,98295.75
2022-11-27T23:24:06.785Z,98283.66
2022-11-27T23:26:33.839Z,98276.50
2022-11-27T23:29:00.776Z,98267.53
2022-11-27T23:31:32.572Z,98259.09
2022-11-27T23:34:02.107Z,98254.63
2022-11-27T23:36:31.338Z,98250.75
2022-11-27T23:39:03.536Z,98228.84
2022-11-27T23:41:31.535Z,98246.38
2022-11-27T23:43:58.935Z,98237.84
2022-11-27T23:46:27.933Z,98232.00
2022-11-27T23:48:57.085Z,98245.78
2022-11-27T23:51:27.788Z,98237.44
2022-11-27T23:53:55.112Z,98222.84
2022-11-27T23:56:25.304Z,98209.41
2022-11-27T23:58:54.985Z,98213.91
